createdAt,value
2022-12-27T00:01:38.248Z,101771.88
2022-12-27T00:04:06.491Z,101759.34
2022-12-27T00:06:34.695Z,101766.44
2022-12-27T00:09:02.863Z,101771.03
2022-12-27T00:11:30.989Z,101772.91
2022-12-27T00:14:00.031Z,101777.50
2022-12-27T00:16:29.636Z,101780.03
2022-12-27T00:18:57.580Z,101775.84
2022-12-27T00:21:25.764Z,101785.66
2022-12-27T00:23:56.105Z,101782.09
2022-12-27T00:26:25.437Z,101785.88
2022-12-27T00:28:53.413Z,101782.94
2022-12-27T00:31:21.453Z,101785.66
2022-12-27T00:33:51.407Z,101783.78
2022-12-27T00:36:20.211Z,101797.56
2022-12-27T00:38:48.190Z,101792.13
2022-12-27T00:41:16.253Z,101792.13
2022-12-27T00:43:44.357Z,101791.28
2022-12-27T00:46:12.683Z,101790.25
2022-12-27T00:48:40.694Z,101794.00
2022-12-27T00:51:12.068Z,101800.28
2022-12-27T00:53:39.986Z,101799.44
2022-12-27T00:56:08.443Z,101800.28
2022-12-27T00:58:40.702Z,101797.56
2022-12-27T01:01:10.015Z,101793.16
2022-12-27T01:03:38.011Z,101795.03
2022-12-27T01:06:06.826Z,101791.28
2022-12-27T01:08:36.098Z,101795.88
2022-12-27T01:11:04.005Z,101803.00
2022-12-27T01:13:32.000Z,101799.44
2022-12-27T01:16:00.209Z,101800.28
2022-12-27T01:18:28.108Z,101795.66
2022-12-27T01:20:55.972Z,101800.28
2022-12-27T01:23:23.884Z,101807.59
2022-12-27T01:25:59.949Z,101803.19
2022-12-27T01:28:27.835Z,101807.78
2022-12-27T01:30:55.737Z,101814.06
2022-12-27T01:33:23.647Z,101816.31
2022-12-27T01:35:51.521Z,101812.38
2022-12-27T01:38:19.447Z,101824.91
2022-12-27T01:40:47.361Z,101819.84
2022-12-27T01:43:17.133Z,101821.34
2022-12-27T01:45:45.349Z,101827.63
2022-12-27T01:48:14.595Z,101830.53
2022-12-27T01:50:43.677Z,101829.69
2022-12-27T01:53:13.528Z,101836.81
2022-12-27T01:55:44.309Z,101833.91
2022-12-27T01:58:13.829Z,101836.81
2022-12-27T02:00:44.266Z,101809.66
2022-12-27T02:03:12.299Z,101844.97
2022-12-27T02:05:41.794Z,101843.09
2022-12-27T02:08:19.702Z,101851.41
2022-12-27T02:10:47.799Z,101847.66
2022-12-27T02:13:15.715Z,101854.78
2022-12-27T02:15:45.627Z,101848.53
2022-12-27T02:18:13.541Z,101844.78
2022-12-27T02:20:51.949Z,101850.22
2022-12-27T02:23:57.009Z,101850.22
2022-12-27T02:26:46.458Z,101854.97
2022-12-27T02:29:50.040Z,101858.53
2022-12-27T02:32:22.242Z,101856.84
2022-12-27T02:35:02.424Z,101857.88
2022-12-27T02:37:31.925Z,101856.00
2022-12-27T02:40:20.607Z,101864.16
2022-12-27T02:43:06.162Z,101851.63
2022-12-27T02:45:52.508Z,101845.84
2022-12-27T02:48:39.074Z,101853.69
2022-12-27T02:51:29.953Z,101847.41
2022-12-27T02:54:01.678Z,101849.09
2022-12-27T02:56:51.900Z,101857.06
2022-12-27T02:59:27.355Z,101853.50
2022-12-27T03:02:17.094Z,101855.38
2022-12-27T03:05:01.198Z,101864.38
2022-12-27T03:07:33.355Z,101861.66
2022-12-27T03:10:26.572Z,101859.09
2022-12-27T03:13:15.483Z,101858.63
2022-12-27T03:15:57.858Z,101869.78
2022-12-27T03:18:49.472Z,101868.94
2022-12-27T03:21:38.457Z,101855.25
2022-12-27T03:24:24.527Z,101869.97
2022-12-27T03:26:52.447Z,101865.09
2022-12-27T03:29:38.481Z,101854.53
2022-12-27T03:32:26.141Z,101869.78
2022-12-27T03:34:54.979Z,101858.13
2022-12-27T03:37:44.522Z,101872.50
2022-12-27T03:40:13.772Z,101878.13
2022-12-27T03:43:00.867Z,101866.94
2022-12-27T03:45:48.982Z,101874.06
2022-12-27T03:48:16.691Z,101885.25
2022-12-27T03:50:45.915Z,101870.50
2022-12-27T03:53:16.893Z,101875.94
2022-12-27T03:55:45.067Z,101888.81
2022-12-27T03:58:13.018Z,101886.09
2022-12-27T04:00:40.995Z,101881.50
2022-12-27T04:03:08.911Z,101877.09
2022-12-27T04:05:37.115Z,101887.97
2022-12-27T04:08:22.504Z,101889.66
2022-12-27T04:11:09.405Z,101886.94
2022-12-27T04:13:55.129Z,101884.41
2022-12-27T04:16:40.399Z,101878.13
2022-12-27T04:19:26.048Z,101883.56
2022-12-27T04:22:11.387Z,101879.81
2022-12-27T04:24:56.945Z,101886.28
2022-12-27T04:27:43.782Z,101885.25
2022-12-27T04:30:29.494Z,101881.69
2022-12-27T04:33:14.846Z,101882.53
2022-12-27T04:35:42.868Z,101873.34
2022-12-27T04:38:12.007Z,101876.88
2022-12-27T04:40:59.699Z,101873.34
2022-12-27T04:43:46.679Z,101874.16
2022-12-27T04:46:33.313Z,101840.94
2022-12-27T04:49:18.399Z,101866.03
2022-12-27T04:52:03.771Z,101873.34
2022-12-27T04:54:49.500Z,101880.44
2022-12-27T04:57:17.374Z,101879.81
2022-12-27T05:00:15.524Z,101881.50
2022-12-27T05:02:43.641Z,101896.09
2022-12-27T05:05:11.691Z,101895.72
2022-12-27T05:07:56.808Z,101896.66
2022-12-27T05:10:42.149Z,101921.84
2022-12-27T05:13:29.157Z,101920.16
2022-12-27T05:15:58.445Z,101923.72
2022-12-27T05:18:26.346Z,101924.75
2022-12-27T05:20:54.549Z,101924.75
2022-12-27T05:23:39.973Z,101921.84
2022-12-27T05:26:07.871Z,101925.41
2022-12-27T05:28:35.763Z,101928.97
2022-12-27T05:31:05.174Z,101926.44
2022-12-27T05:33:33.245Z,101921.84
2022-12-27T05:36:01.428Z,101918.13
2022-12-27T05:38:29.307Z,101921.19
2022-12-27T05:41:00.343Z,101923.56
2022-12-27T05:43:28.260Z,101937.97
2022-12-27T05:45:56.584Z,101950.72
2022-12-27T05:48:25.960Z,101937.97
2022-12-27T05:50:53.828Z,101937.97
2022-12-27T05:53:21.704Z,101944.25
2022-12-27T05:55:55.207Z,101940.69
2022-12-27T05:58:23.068Z,101948.63
2022-12-27T06:00:50.901Z,101951.34
2022-12-27T06:03:18.895Z,101953.22
2022-12-27T06:05:48.543Z,101957.84
2022-12-27T06:08:16.463Z,101956.78
2022-12-27T06:10:44.369Z,101945.06
2022-12-27T06:13:12.321Z,101942.75
2022-12-27T06:15:40.490Z,101954.91
2022-12-27T06:18:08.417Z,101950.31
2022-12-27T06:20:36.308Z,101956.78
2022-12-27T06:23:05.604Z,101954.91
2022-12-27T06:25:33.817Z,101962.22
2022-12-27T06:28:01.713Z,101964.09
2022-12-27T06:30:35.807Z,101959.50
2022-12-27T06:33:04.124Z,101974.78
2022-12-27T06:35:32.028Z,101980.22
2022-12-27T06:37:59.928Z,101977.50
2022-12-27T06:40:29.264Z,101974.78
2022-12-27T06:42:57.136Z,101973.94
2022-12-27T06:45:25.329Z,101970.38
2022-12-27T06:47:53.308Z,101974.78
2022-12-27T06:50:21.206Z,101974.78
2022-12-27T06:52:49.099Z,101981.91
2022-12-27T06:55:17.366Z,101974.78
2022-12-27T06:57:46.616Z,101977.50
2022-12-27T07:00:16.102Z,101989.19
2022-12-27T07:02:44.064Z,101981.06
2022-12-27T07:05:12.339Z,101974.78
2022-12-27T07:07:40.260Z,101980.03
2022-12-27T07:10:08.922Z,101985.47
2022-12-27T07:12:37.289Z,101990.91
2022-12-27T07:30:09.491Z,102021.81
2022-12-27T07:32:37.454Z,102022.66
2022-12-27T07:35:06.296Z,102025.38
2022-12-27T07:37:34.478Z,102027.06
2022-12-27T07:40:02.370Z,102029.78
2022-12-27T07:42:30.255Z,102028.75
2022-12-27T07:44:59.150Z,102024.34
2022-12-27T07:47:28.712Z,102033.34
2022-12-27T07:49:56.578Z,102030.63
2022-12-27T07:52:24.509Z,102035.22
2022-12-27T07:54:52.385Z,102038.78
2022-12-27T07:57:20.556Z,102036.91
2022-12-27T07:59:48.498Z,102048.59
2022-12-27T08:02:16.553Z,102045.88
2022-12-27T08:04:46.017Z,102046.06
2022-12-27T08:07:15.905Z,102048.59
2022-12-27T08:09:44.496Z,102048.59
2022-12-27T08:12:13.470Z,102054.88
2022-12-27T08:14:41.371Z,102051.31
2022-12-27T08:17:13.277Z,102057.59
2022-12-27T08:19:41.287Z,102054.88
2022-12-27T08:22:11.276Z,102063.00
2022-12-27T08:24:40.932Z,102056.94
2022-12-27T08:27:09.201Z,102065.72
2022-12-27T08:29:37.787Z,102063.88
2022-12-27T08:32:06.051Z,102066.59
2022-12-27T08:34:34.025Z,102064.72
2022-12-27T08:37:02.184Z,102065.72
2022-12-27T08:39:31.660Z,102064.72
2022-12-27T08:41:59.524Z,102064.72
2022-12-27T08:44:28.175Z,102072.88
2022-12-27T08:46:56.379Z,102072.00
2022-12-27T08:49:24.311Z,102063.88
2022-12-27T08:51:52.233Z,102069.28
2022-12-27T08:54:20.163Z,102066.59
2022-12-27T08:56:49.751Z,102065.72
2022-12-27T08:59:17.649Z,102066.59
2022-12-27T09:01:45.635Z,102055.72
2022-12-27T09:04:13.626Z,102060.13
2022-12-27T09:06:42.167Z,102063.88
2022-12-27T09:09:10.117Z,102065.56
2022-12-27T09:11:38.303Z,102062.00
2022-12-27T09:14:07.622Z,102076.44
2022-12-27T09:16:35.912Z,102072.88
2022-12-27T09:19:04.082Z,102069.69
2022-12-27T09:21:32.703Z,102083.72
2022-12-27T09:24:00.625Z,102081.00
2022-12-27T09:26:29.168Z,102087.28
2022-12-27T09:28:57.067Z,102081.84
2022-12-27T09:31:26.757Z,102091.69
2022-12-27T09:33:54.986Z,102084.56
2022-12-27T09:36:23.901Z,102088.13
2022-12-27T09:38:52.854Z,102089.16
2022-12-27T09:42:11.834Z,102095.44
2022-12-27T09:44:13.061Z,102091.69
2022-12-27T09:46:43.901Z,102082.41
2022-12-27T09:49:12.097Z,102092.72
2022-12-27T09:51:44.909Z,102088.13
2022-12-27T09:54:14.370Z,102078.13
2022-12-27T09:57:17.648Z,102073.72
2022-12-27T09:59:33.144Z,102085.41
2022-12-27T10:02:02.506Z,102083.56
2022-12-27T10:04:45.568Z,102075.41
2022-12-27T10:07:21.018Z,102078.97
2022-12-27T10:09:57.126Z,102070.81
2022-12-27T10:12:48.161Z,102078.97
2022-12-27T10:15:24.444Z,102086.28
2022-12-27T10:17:59.472Z,102078.97
2022-12-27T10:20:32.011Z,102076.25
2022-12-27T10:23:06.000Z,102072.69
2022-12-27T10:25:34.524Z,102046.38
2022-12-27T10:28:06.393Z,102075.41
2022-12-27T10:30:34.300Z,102084.41
2022-12-27T10:33:03.576Z,102079.81
2022-12-27T10:35:32.075Z,102077.09
2022-12-27T10:38:01.746Z,102077.09
2022-12-27T10:40:38.713Z,102068.09
2022-12-27T10:43:09.123Z,102079.81
2022-12-27T10:45:39.433Z,102073.34
2022-12-27T10:48:17.502Z,102073.53
2022-12-27T10:50:50.867Z,102077.94
2022-12-27T10:53:35.907Z,102076.25
2022-12-27T10:56:13.010Z,102080.66
2022-12-27T10:58:42.287Z,102081.50
2022-12-27T11:01:16.908Z,102084.22
2022-12-27T11:03:46.303Z,102071.66
2022-12-27T11:06:32.501Z,102069.78
2022-12-27T11:09:00.549Z,102071.66
2022-12-27T11:11:28.443Z,102066.03
2022-12-27T11:13:57.290Z,102069.59
2022-12-27T11:16:29.487Z,102081.31
2022-12-27T11:19:00.146Z,102071.44
2022-12-27T11:21:28.499Z,102072.31
2022-12-27T11:23:58.196Z,102073.16
2022-12-27T11:26:27.738Z,102075.03
2022-12-27T11:28:56.879Z,102071.44
2022-12-27T11:31:31.459Z,102075.88
2022-12-27T11:34:01.992Z,102072.31
2022-12-27T11:36:31.778Z,102075.03
2022-12-27T11:39:00.576Z,102079.44
2022-12-27T11:41:35.972Z,102075.88
2022-12-27T11:44:06.864Z,102073.16
2022-12-27T11:46:38.447Z,102075.88
2022-12-27T11:49:08.618Z,102078.59
2022-12-27T11:51:57.471Z,102068.56
2022-12-27T11:54:34.032Z,102070.44
2022-12-27T11:57:05.867Z,102063.00
2022-12-27T11:59:39.221Z,102069.59
2022-12-27T12:02:33.804Z,102067.72
2022-12-27T12:05:50.508Z,102059.56
2022-12-27T12:08:40.475Z,102058.94
2022-12-27T12:11:14.587Z,102030.53
2022-12-27T12:14:17.769Z,102060.59
2022-12-27T12:16:52.213Z,102055.16
2022-12-27T12:19:29.350Z,102050.38
2022-12-27T12:22:04.485Z,102041.41
2022-12-27T12:24:59.164Z,102017.09
2022-12-27T12:27:48.653Z,102045.97
2022-12-27T12:30:38.047Z,102043.66
2022-12-27T12:33:35.341Z,102043.25
2022-12-27T12:36:22.788Z,102030.41
2022-12-27T12:38:52.054Z,102041.41
2022-12-27T12:41:37.870Z,102027.81
2022-12-27T12:44:41.705Z,102032.41
2022-12-27T12:47:15.047Z,102040.53
2022-12-27T12:49:57.985Z,102033.25
2022-12-27T12:52:31.286Z,102023.41
2022-12-27T12:55:25.819Z,102020.41
2022-12-27T12:58:00.567Z,102019.84
2022-12-27T13:00:36.306Z,102026.97
2022-12-27T13:03:39.522Z,102013.38
2022-12-27T13:06:14.945Z,101995.09
2022-12-27T13:08:45.000Z,101970.28
2022-12-27T13:11:41.493Z,101994.56
2022-12-27T13:14:20.040Z,101993.50
2022-12-27T13:16:51.726Z,101996.22
2022-12-27T13:19:34.096Z,101947.22
2022-12-27T13:22:07.286Z,101980.78
2022-12-27T13:24:39.846Z,101968.78
2022-12-27T13:27:10.646Z,101974.31
2022-12-27T13:29:53.647Z,101961.28
2022-12-27T13:32:26.678Z,101959.88
2022-12-27T13:35:02.139Z,101959.88
2022-12-27T13:37:37.139Z,101950.72
2022-12-27T13:40:19.151Z,101948.84
2022-12-27T13:43:06.505Z,101945.44
2022-12-27T13:45:49.675Z,101937.19
2022-12-27T13:48:37.753Z,101949.00
2022-12-27T13:51:11.764Z,101960.72
2022-12-27T13:54:03.273Z,101949.84
2022-12-27T13:59:51.317Z,101943.41
2022-12-27T14:03:04.884Z,101935.44
2022-12-27T14:05:52.343Z,101941.72
2022-12-27T14:08:24.453Z,101939.84
2022-12-27T14:11:00.444Z,101935.44
2022-12-27T14:13:30.176Z,101929.81
2022-12-27T14:16:29.097Z,101922.50
2022-12-27T14:19:03.735Z,101927.09
2022-12-27T14:21:49.969Z,101937.13
2022-12-27T14:24:23.775Z,101935.59
2022-12-27T14:27:15.594Z,101784.38
2022-12-27T14:30:19.857Z,101937.31
2022-12-27T14:33:06.129Z,101930.00
2022-12-27T14:36:00.404Z,101918.69
2022-12-27T14:38:48.079Z,101918.84
2022-12-27T14:41:29.280Z,101921.56
2022-12-27T14:44:21.541Z,101920.38
2022-12-27T14:47:27.445Z,101909.94
2022-12-27T14:50:29.010Z,101911.81
2022-12-27T14:53:43.110Z,101916.41
2022-12-27T14:56:20.346Z,101909.94
2022-12-27T14:58:56.442Z,101902.81
2022-12-27T15:01:31.250Z,101908.06
2022-12-27T15:04:07.476Z,101911.81
2022-12-27T15:06:44.879Z,101898.25
2022-12-27T15:09:14.221Z,101906.38
2022-12-27T15:11:55.702Z,101884.09
2022-12-27T15:14:39.773Z,101905.53
2022-12-27T15:17:13.796Z,101907.06
2022-12-27T15:20:01.726Z,101902.66
2022-12-27T15:22:34.086Z,101886.06
2022-12-27T15:25:05.510Z,101900.78
2022-12-27T15:27:38.684Z,101907.25
2022-12-27T15:30:19.554Z,101899.09
2022-12-27T15:32:53.420Z,101895.53
2022-12-27T15:35:53.686Z,101896.38
2022-12-27T15:38:41.020Z,101881.09
2022-12-27T15:41:22.288Z,101881.75
2022-12-27T15:44:16.183Z,101883.63
2022-12-27T15:47:22.366Z,101884.47
2022-12-27T15:50:26.216Z,101882.97
2022-12-27T15:53:10.206Z,101885.50
2022-12-27T15:55:52.909Z,101872.09
2022-12-27T15:58:21.015Z,101865.63
2022-12-27T16:01:25.719Z,101871.91
2022-12-27T16:03:58.455Z,101743.88
2022-12-27T16:06:56.551Z,101871.91
2022-12-27T16:09:36.891Z,101886.34
2022-12-27T16:12:06.913Z,101880.06
2022-12-27T16:14:35.561Z,101877.34
2022-12-27T16:17:11.728Z,101885.50
2022-12-27T16:20:16.376Z,101885.50
2022-12-27T16:22:44.940Z,101893.66
2022-12-27T16:25:32.303Z,101899.94
2022-12-27T16:28:02.489Z,101893.66
2022-12-27T16:30:39.700Z,101889.06
2022-12-27T16:33:08.392Z,101886.34
2022-12-27T16:35:37.664Z,101879.22
2022-12-27T16:38:06.626Z,101878.19
2022-12-27T16:40:45.489Z,101875.47
2022-12-27T16:43:46.276Z,101879.03
2022-12-27T16:46:38.848Z,101878.19
2022-12-27T16:49:23.301Z,101866.22
2022-12-27T16:52:02.158Z,101874.63
2022-12-27T16:54:33.590Z,101878.19
2022-12-27T16:57:23.040Z,101885.31
2022-12-27T16:59:57.879Z,101878.19
2022-12-27T17:02:34.582Z,101881.75
2022-12-27T17:05:02.589Z,101870.03
2022-12-27T17:07:43.251Z,101879.03
2022-12-27T17:10:34.738Z,101886.34
2022-12-27T17:13:06.328Z,101861.06
2022-12-27T17:15:34.215Z,101884.66
2022-12-27T17:18:09.937Z,101887.38
2022-12-27T17:20:38.127Z,101875.66
2022-12-27T17:23:07.417Z,101871.06
2022-12-27T17:25:38.050Z,101867.31
2022-12-27T17:28:07.984Z,101871.91
2022-12-27T17:30:39.563Z,101847.94
2022-12-27T17:33:27.460Z,101866.38
2022-12-27T17:36:15.550Z,101861.63
2022-12-27T17:38:52.767Z,101871.91
2022-12-27T17:41:44.173Z,101869.19
2022-12-27T17:44:34.179Z,101872.75
2022-12-27T17:47:15.055Z,101869.78
2022-12-27T17:49:43.429Z,101871.91
2022-12-27T17:52:34.042Z,101865.63
2022-12-27T17:55:32.638Z,101863.09
2022-12-27T17:58:01.452Z,101865.63
2022-12-27T18:00:31.096Z,101856.63
2022-12-27T18:02:59.715Z,101862.06
2022-12-27T18:05:28.771Z,101856.47
2022-12-27T18:08:01.806Z,101862.06
2022-12-27T18:10:31.604Z,101860.19
2022-12-27T18:13:00.784Z,101861.88
2022-12-27T18:15:29.193Z,101831.47
2022-12-27T18:17:59.005Z,101850.19
2022-12-27T18:20:31.646Z,101838.28
2022-12-27T18:23:16.671Z,101838.47
2022-12-27T18:25:53.922Z,101828.44
2022-12-27T18:28:25.980Z,101828.44
2022-12-27T18:31:00.289Z,101829.28
2022-12-27T18:33:32.313Z,101817.56
2022-12-27T18:36:01.154Z,101820.28
2022-12-27T18:38:30.838Z,101814.00
2022-12-27T18:41:01.904Z,101814.00
2022-12-27T18:43:30.167Z,101808.59
2022-12-27T18:45:58.067Z,101811.13
2022-12-27T18:48:25.972Z,101806.72
2022-12-27T18:50:54.523Z,101817.56
2022-12-27T18:53:23.609Z,101791.28
2022-12-27T18:56:00.866Z,101811.13
2022-12-27T18:58:28.832Z,101814.69
2022-12-27T19:01:00.461Z,101813.84
2022-12-27T19:03:28.820Z,101804.84
2022-12-27T19:06:05.353Z,101808.41
2022-12-27T19:08:35.322Z,101805.69
2022-12-27T19:11:04.756Z,101810.28
2022-12-27T19:13:40.144Z,101817.41
2022-12-27T19:16:08.501Z,101801.28
2022-12-27T19:18:38.261Z,101793.97
2022-12-27T19:21:07.171Z,101777.66
2022-12-27T19:23:35.804Z,101783.94
2022-12-27T19:26:08.883Z,101775.78
2022-12-27T19:28:36.982Z,101784.78
2022-12-27T19:31:17.590Z,101775.31
2022-12-27T19:33:47.711Z,101766.81
2022-12-27T19:36:15.975Z,101753.22
2022-12-27T19:38:47.794Z,101759.50
2022-12-27T19:41:17.563Z,101759.50
2022-12-27T19:43:46.244Z,101753.41
2022-12-27T19:46:14.796Z,101746.28
2022-12-27T19:48:43.823Z,101748.63
2022-12-27T19:51:12.817Z,101743.19
2022-12-27T19:53:41.293Z,101749.66
2022-12-27T19:56:09.878Z,101741.31
2022-12-27T19:58:39.272Z,101741.31
2022-12-27T20:01:07.259Z,101737.75
2022-12-27T20:03:35.189Z,101745.06
2022-12-27T20:06:14.268Z,101732.31
2022-12-27T20:08:49.841Z,101733.16
2022-12-27T20:11:19.211Z,101727.72
2022-12-27T20:13:48.554Z,101725.03
2022-12-27T20:16:18.243Z,101722.31
2022-12-27T20:18:46.239Z,101721.66
2022-12-27T20:21:14.230Z,101722.31
2022-12-27T20:23:42.192Z,101720.63
2022-12-27T20:26:10.409Z,101716.03
2022-12-27T20:28:38.323Z,101715.19
2022-12-27T20:31:11.167Z,101719.38
2022-12-27T20:33:39.116Z,101710.59
2022-12-27T20:36:08.505Z,101707.88
2022-12-27T20:38:36.548Z,101705.16
2022-12-27T20:41:08.644Z,101694.28
2022-12-27T20:43:36.544Z,101698.88
2022-12-27T20:46:05.997Z,101701.59
2022-12-27T20:48:37.634Z,101698.88
2022-12-27T20:51:08.433Z,101699.72
2022-12-27T20:53:36.302Z,101695.31
2022-12-27T20:56:04.910Z,101688.84
2022-12-27T20:58:32.821Z,101681.53
2022-12-27T21:01:07.048Z,101683.41
2022-12-27T21:03:36.523Z,101667.97
2022-12-27T21:06:09.341Z,101671.72
2022-12-27T21:08:43.172Z,101676.13
2022-12-27T21:11:15.661Z,101675.28
2022-12-27T21:13:43.899Z,101668.16
2022-12-27T21:16:12.489Z,101662.53
2022-12-27T21:18:42.118Z,101658.13
2022-12-27T21:21:11.022Z,101660.84
2022-12-27T21:23:38.990Z,101665.25
2022-12-27T21:26:07.364Z,101650.81
2022-12-27T21:28:35.421Z,101648.09
2022-12-27T21:31:03.446Z,101648.94
2022-12-27T21:33:31.412Z,101648.94
2022-12-27T21:36:02.113Z,101641.81
2022-12-27T21:38:30.086Z,101641.63
2022-12-27T21:40:59.013Z,101635.38
2022-12-27T21:43:28.766Z,101632.66
2022-12-27T21:45:57.119Z,101614.66
2022-12-27T21:48:25.063Z,101614.47
2022-12-27T21:50:52.944Z,101611.75
2022-12-27T21:53:22.260Z,101600.88
2022-12-27T21:55:50.422Z,101596.25
2022-12-27T21:58:18.262Z,101585.41
2022-12-27T22:00:46.162Z,101590.03
2022-12-27T22:03:14.244Z,101585.41
2022-12-27T22:05:42.583Z,101581.88
2022-12-27T22:08:10.504Z,101582.50
2022-12-27T22:10:39.843Z,101579.16
2022-12-27T22:13:07.734Z,101583.53
2022-12-27T22:15:35.642Z,101574.53
2022-12-27T22:18:03.913Z,101578.09
2022-12-27T22:20:31.810Z,101563.41
2022-12-27T22:22:59.772Z,101566.19
2022-12-27T22:25:27.695Z,101568.28
2022-12-27T22:27:57.317Z,101558.22
2022-12-27T22:30:25.224Z,101558.22
2022-12-27T22:32:53.138Z,101563.47
2022-12-27T22:35:20.992Z,101554.47
2022-12-27T22:37:49.167Z,101546.34
2022-12-27T22:40:31.003Z,101543.84
2022-12-27T22:43:06.744Z,101536.72
2022-12-27T22:45:34.655Z,101536.72
2022-12-27T22:48:03.034Z,101534.84
2022-12-27T22:50:30.940Z,101530.44
2022-12-27T22:52:58.920Z,101522.28
2022-12-27T22:55:26.832Z,101522.28
2022-12-27T22:57:55.000Z,101516.84
2022-12-27T23:00:24.498Z,101505.16
2022-12-27T23:02:52.441Z,101495.97
2022-12-27T23:05:20.528Z,101492.41
2022-12-27T23:08:05.653Z,101486.97
2022-12-27T23:10:34.928Z,101484.25
2022-12-27T23:13:02.833Z,101476.09
2022-12-27T23:15:32.152Z,101471.72
2022-12-27T23:18:00.079Z,101471.50
2022-12-27T23:20:27.987Z,101468.81
2022-12-27T23:22:55.909Z,101456.44
2022-12-27T23:25:23.789Z,101446.22
2022-12-27T23:27:51.988Z,101450.81
2022-12-27T23:30:21.196Z,101444.53
2022-12-27T23:32:50.483Z,101439.09
2022-12-27T23:35:18.391Z,101429.28
2022-12-27T23:37:46.563Z,101422.81
2022-12-27T23:40:14.490Z,101415.69
2022-12-27T23:42:42.365Z,101407.53
2022-12-27T23:45:11.093Z,101402.34
2022-12-27T23:47:39.299Z,101395.84
2022-12-27T23:50:09.412Z,101393.97
2022-12-27T23:52:37.311Z,101390.41
2022-12-27T23:55:05.976Z,101384.97
2022-12-27T23:57:34.203Z,101379.53
